createdAt,value
2019-02-20T00:01:41.406Z,100361.52
2019-02-20T00:04:10.488Z,100360.20
2019-02-20T00:06:39.493Z,100360.63
2019-02-20T00:09:08.458Z,100345.37
2019-02-20T00:11:37.493Z,100349.72
2019-02-20T00:14:06.601Z,100359.31
2019-02-20T00:16:35.587Z,100354.06
2019-02-20T00:19:04.554Z,100356.66
2019-02-20T00:21:33.543Z,100357.05
2019-02-20T00:24:02.626Z,100356.17
2019-02-20T00:26:31.643Z,100357.89
2019-02-20T00:29:00.742Z,100352.21
2019-02-20T00:31:29.753Z,100359.63
2019-02-20T00:33:58.833Z,100353.52
2019-02-20T00:36:27.848Z,100355.70
2019-02-20T00:38:56.945Z,100357.86
2019-02-20T00:41:25.963Z,100351.75
2019-02-20T00:44:12.386Z,100360.45
2019-02-20T00:46:48.566Z,100368.31
2019-02-20T00:49:36.550Z,100369.59
2019-02-20T00:52:23.462Z,100373.50
2019-02-20T00:54:52.586Z,100371.34
2019-02-20T00:57:22.021Z,100369.63
2019-02-20T00:59:50.982Z,100367.44
2019-02-20T01:02:19.952Z,100367.05
2019-02-20T01:04:48.998Z,100364.87
2019-02-20T01:07:17.945Z,100373.56
2019-02-20T01:09:47.011Z,100374.44
2019-02-20T01:12:15.995Z,100376.63
2019-02-20T01:14:44.996Z,100367.47
2019-02-20T01:17:14.019Z,100367.05
2019-02-20T01:19:43.091Z,100366.17
2019-02-20T01:22:12.082Z,100366.16
2019-02-20T01:24:41.091Z,100368.34
2019-02-20T01:27:10.014Z,100371.37
2019-02-20T01:29:39.065Z,100364.83
2019-02-20T01:32:08.003Z,100367.47
2019-02-20T01:34:36.990Z,100365.70
2019-02-20T01:37:05.898Z,100363.11
2019-02-20T01:39:34.908Z,100363.98
2019-02-20T01:42:03.939Z,100362.66
2019-02-20T01:44:32.949Z,100360.47
2019-02-20T01:47:01.990Z,100364.85
2019-02-20T01:49:31.035Z,100362.66
2019-02-20T01:52:00.113Z,100358.73
2019-02-20T01:54:29.137Z,100362.22
2019-02-20T01:56:58.193Z,100356.52
2019-02-20T01:59:27.215Z,100365.66
2019-02-20T02:01:56.261Z,100358.70
2019-02-20T02:04:25.340Z,100360.42
2019-02-20T02:06:54.477Z,100348.66
2019-02-20T02:09:23.528Z,100356.05
2019-02-20T02:11:52.602Z,100356.45
2019-02-20T02:14:21.663Z,100356.88
2019-02-20T02:16:50.736Z,100362.53
2019-02-20T02:19:19.772Z,100358.20
2019-02-20T02:21:48.853Z,100360.80
2019-02-20T02:24:17.883Z,100359.06
2019-02-20T02:26:46.976Z,100365.59
2019-02-20T02:29:16.093Z,100362.11
2019-02-20T02:31:45.176Z,100367.34
2019-02-20T02:34:14.203Z,100356.84
2019-02-20T02:36:43.292Z,100355.98
2019-02-20T02:39:12.323Z,100361.66
2019-02-20T02:41:41.409Z,100359.02
2019-02-20T02:44:10.458Z,100357.73
2019-02-20T02:46:39.543Z,100359.02
2019-02-20T02:49:08.572Z,100364.68
2019-02-20T02:51:37.655Z,100354.23
2019-02-20T02:54:06.738Z,100347.70
2019-02-20T02:56:35.844Z,100351.61
2019-02-20T02:59:04.911Z,100352.92
2019-02-20T03:01:33.988Z,100349.89
2019-02-20T03:04:03.091Z,100349.89
2019-02-20T03:06:32.196Z,100351.62
2019-02-20T03:09:01.252Z,100349.01
2019-02-20T03:11:30.349Z,100351.22
2019-02-20T03:13:59.386Z,100359.05
2019-02-20T03:16:28.455Z,100361.25
2019-02-20T03:18:57.540Z,100357.33
2019-02-20T03:21:26.567Z,100361.70
2019-02-20T03:23:55.657Z,100362.55
2019-02-20T03:26:24.692Z,100357.33
2019-02-20T03:28:53.745Z,100359.48
2019-02-20T03:31:22.867Z,100356.45
2019-02-20T03:33:51.934Z,100362.98
2019-02-20T03:36:20.974Z,100352.10
2019-02-20T03:38:50.121Z,100352.98
2019-02-20T03:41:19.167Z,100351.66
2019-02-20T03:43:48.248Z,100351.66
2019-02-20T03:46:17.313Z,100350.80
2019-02-20T03:48:46.381Z,100359.52
2019-02-20T03:51:15.389Z,100363.45
2019-02-20T03:53:51.674Z,100363.42
2019-02-20T03:56:15.237Z,100367.78
2019-02-20T03:58:44.308Z,100370.42
2019-02-20T04:01:13.407Z,100370.42
2019-02-20T04:03:42.512Z,100372.14
2019-02-20T04:06:11.567Z,100371.75
2019-02-20T04:08:40.652Z,100368.66
2019-02-20T04:11:09.673Z,100373.91
2019-02-20T04:13:38.752Z,100370.86
2019-02-20T04:16:07.801Z,100369.12
2019-02-20T04:18:36.937Z,100369.12
2019-02-20T04:21:05.968Z,100372.58
2019-02-20T04:23:35.036Z,100374.80
2019-02-20T04:26:04.125Z,100369.13
2019-02-20T04:28:33.184Z,100380.47
2019-02-20T04:31:02.221Z,100377.41
2019-02-20T04:33:31.328Z,100379.12
2019-02-20T04:36:00.381Z,100381.30
2019-02-20T04:38:29.609Z,100383.52
2019-02-20T04:40:58.623Z,100376.11
2019-02-20T04:43:27.722Z,100379.58
2019-02-20T04:45:56.753Z,100376.50
2019-02-20T04:48:25.850Z,100378.70
2019-02-20T04:50:54.907Z,100373.48
2019-02-20T04:53:24.028Z,100376.53
2019-02-20T04:55:53.064Z,100374.36
2019-02-20T04:58:23.546Z,100377.41
2019-02-20T05:00:52.649Z,100380.83
2019-02-20T05:03:23.255Z,100375.61
2019-02-20T05:05:52.525Z,100375.59
2019-02-20T05:08:21.649Z,100374.31
2019-02-20T05:10:50.731Z,100376.93
2019-02-20T05:13:22.480Z,100372.14
2019-02-20T05:15:51.538Z,100371.28
2019-02-20T05:18:20.618Z,100366.06
2019-02-20T05:20:49.744Z,100369.97
2019-02-20T05:23:18.858Z,100370.84
2019-02-20T05:25:47.982Z,100375.63
2019-02-20T05:28:17.061Z,100375.19
2019-02-20T05:30:46.263Z,100371.27
2019-02-20T05:33:15.356Z,100371.27
2019-02-20T05:35:44.423Z,100376.05
2019-02-20T05:38:13.706Z,100367.73
2019-02-20T05:40:42.815Z,100374.27
2019-02-20T05:43:11.887Z,100369.04
2019-02-20T05:45:41.030Z,100374.27
2019-02-20T05:48:10.337Z,100377.32
2019-02-20T05:50:39.397Z,100374.28
2019-02-20T05:53:08.508Z,100375.15
2019-02-20T05:55:37.562Z,100369.45
2019-02-20T05:58:06.612Z,100379.03
2019-02-20T06:00:35.658Z,100373.38
2019-02-20T06:03:05.100Z,100376.42
2019-02-20T06:05:35.498Z,100388.16
2019-02-20T06:08:04.518Z,100382.50
2019-02-20T06:10:33.548Z,100385.55
2019-02-20T06:13:04.960Z,100386.39
2019-02-20T06:15:34.079Z,100381.16
2019-02-20T06:18:03.173Z,100385.92
2019-02-20T06:20:32.236Z,100391.12
2019-02-20T06:23:01.331Z,100391.53
2019-02-20T06:25:30.497Z,100400.65
2019-02-20T06:27:59.595Z,100399.30
2019-02-20T06:30:28.705Z,100398.86
2019-02-20T06:32:57.836Z,100405.81
2019-02-20T06:35:27.301Z,100404.55
2019-02-20T06:37:56.519Z,100400.21
2019-02-20T06:40:25.619Z,100403.73
2019-02-20T06:42:54.750Z,100405.06
2019-02-20T06:45:23.893Z,100402.02
2019-02-20T06:47:52.953Z,100402.05
2019-02-20T06:50:21.996Z,100406.86
2019-02-20T06:52:51.165Z,100407.27
2019-02-20T06:55:20.264Z,100415.98
2019-02-20T06:57:49.334Z,100419.02
2019-02-20T07:00:18.413Z,100416.41
2019-02-20T07:02:47.511Z,100422.52
2019-02-20T07:06:06.920Z,100418.17
2019-02-20T07:09:15.209Z,100422.12
2019-02-20T07:12:13.278Z,100423.91
2019-02-20T07:15:07.006Z,100426.95
2019-02-20T07:17:59.519Z,100426.58
2019-02-20T07:20:58.118Z,100438.84
2019-02-20T07:23:34.393Z,100435.80
2019-02-20T07:26:36.279Z,100433.64
2019-02-20T07:29:45.509Z,100439.36
2019-02-20T07:32:16.837Z,100440.30
2019-02-20T07:34:45.858Z,100441.63
2019-02-20T07:37:14.987Z,100441.27
2019-02-20T07:39:44.111Z,100446.97
2019-02-20T07:42:13.254Z,100450.90
2019-02-20T07:44:42.354Z,100457.06
2019-02-20T07:47:13.616Z,100460.57
2019-02-20T07:49:42.820Z,100463.64
2019-02-20T07:52:11.903Z,100463.19
2019-02-20T07:54:40.970Z,100459.27
2019-02-20T07:57:10.117Z,100469.73
2019-02-20T07:59:39.247Z,100470.63
2019-02-20T08:02:08.315Z,100480.71
2019-02-20T08:04:37.436Z,100482.91
2019-02-20T08:07:06.553Z,100488.15
2019-02-20T08:09:35.885Z,100485.11
2019-02-20T08:12:04.964Z,100489.04
2019-02-20T08:14:34.106Z,100486.86
2019-02-20T08:17:03.216Z,100488.63
2019-02-20T08:19:32.368Z,100492.59
2019-02-20T08:22:01.498Z,100501.81
2019-02-20T08:24:30.687Z,100505.34
2019-02-20T08:26:59.811Z,100508.41
2019-02-20T08:29:29.047Z,100509.28
2019-02-20T08:31:58.135Z,100520.66
2019-02-20T08:34:27.209Z,100519.28
2019-02-20T08:36:56.608Z,100373.81
2019-02-20T08:39:25.686Z,100511.94
2019-02-20T08:41:54.820Z,100515.52
2019-02-20T08:44:23.910Z,100520.02
2019-02-20T08:46:52.997Z,100516.33
2019-02-20T08:49:22.137Z,100519.75
2019-02-20T08:51:51.270Z,100521.06
2019-02-20T08:54:20.444Z,100515.94
2019-02-20T08:56:49.596Z,100520.78
2019-02-20T08:59:18.806Z,100516.70
2019-02-20T09:01:47.933Z,100519.13
2019-02-20T09:04:17.033Z,100518.31
2019-02-20T09:06:46.188Z,100520.16
2019-02-20T09:09:15.279Z,100526.46
2019-02-20T09:11:45.989Z,100531.73
2019-02-20T09:14:15.037Z,100523.32
2019-02-20T09:16:44.159Z,100526.24
2019-02-20T09:19:13.196Z,100524.98
2019-02-20T09:21:42.327Z,100525.70
2019-02-20T09:24:11.453Z,100521.45
2019-02-20T09:26:40.471Z,100533.29
2019-02-20T09:29:09.534Z,100536.38
2019-02-20T09:31:38.698Z,100541.77
2019-02-20T09:34:07.693Z,100544.52
2019-02-20T09:36:36.787Z,100539.34
2019-02-20T09:39:33.940Z,100542.11
2019-02-20T09:42:03.341Z,100540.44
2019-02-20T09:44:35.888Z,100540.03
2019-02-20T09:47:04.968Z,100541.11
2019-02-20T09:49:34.021Z,100541.70
2019-02-20T09:52:03.229Z,100540.73
2019-02-20T09:54:32.398Z,100542.59
2019-02-20T09:57:01.496Z,100547.36
2019-02-20T09:59:30.608Z,100542.11
2019-02-20T10:01:59.698Z,100539.27
2019-02-20T10:04:28.788Z,100540.55
2019-02-20T10:06:57.913Z,100538.45
2019-02-20T10:09:26.962Z,100530.64
2019-02-20T10:11:56.105Z,100531.09
2019-02-20T10:14:25.232Z,100540.42
2019-02-20T10:16:54.367Z,100541.48
2019-02-20T10:19:23.441Z,100532.84
2019-02-20T10:21:52.595Z,100535.13
2019-02-20T10:24:21.739Z,100534.27
2019-02-20T10:26:50.779Z,100538.84
2019-02-20T10:29:19.849Z,100548.89
2019-02-20T10:31:49.203Z,100456.52
2019-02-20T10:34:18.436Z,100532.77
2019-02-20T10:36:47.729Z,100536.03
2019-02-20T10:39:16.808Z,100546.34
2019-02-20T10:41:45.896Z,100542.94
2019-02-20T10:44:15.100Z,100543.73
2019-02-20T10:46:44.191Z,100551.61
2019-02-20T10:49:13.358Z,100546.62
2019-02-20T10:51:42.526Z,100543.50
2019-02-20T10:54:11.656Z,100551.04
2019-02-20T10:56:40.786Z,100548.61
2019-02-20T10:59:09.817Z,100549.79
2019-02-20T11:01:38.965Z,100552.44
2019-02-20T11:04:08.040Z,100550.17
2019-02-20T11:06:37.219Z,100551.16
2019-02-20T11:09:07.164Z,100550.47
2019-02-20T11:11:36.231Z,100557.38
2019-02-20T11:14:05.337Z,100546.28
2019-02-20T11:16:34.478Z,100552.36
2019-02-20T11:19:03.665Z,100543.56
2019-02-20T11:21:32.792Z,100550.00
2019-02-20T11:24:01.837Z,100551.33
2019-02-20T11:26:30.943Z,100550.98
2019-02-20T11:29:00.046Z,100548.45
2019-02-20T11:31:29.251Z,100550.50
2019-02-20T11:33:58.383Z,100554.48
2019-02-20T11:36:27.499Z,100555.63
2019-02-20T11:38:56.662Z,100548.33
2019-02-20T11:41:25.722Z,100554.09
2019-02-20T11:43:54.784Z,100548.62
2019-02-20T11:46:23.818Z,100311.22
2019-02-20T11:48:52.899Z,100560.25
2019-02-20T11:51:21.944Z,100552.27
2019-02-20T11:53:51.024Z,100553.67
2019-02-20T11:56:26.461Z,100553.62
2019-02-20T11:58:50.948Z,100554.81
2019-02-20T12:01:19.988Z,100557.55
2019-02-20T12:03:49.096Z,100555.54
2019-02-20T12:06:18.181Z,100562.25
2019-02-20T12:08:47.227Z,100546.05
2019-02-20T12:11:16.265Z,100548.94
2019-02-20T12:13:45.360Z,100550.48
2019-02-20T12:16:14.393Z,100551.30
2019-02-20T12:18:45.280Z,100557.21
2019-02-20T12:21:14.272Z,100545.02
2019-02-20T12:23:43.323Z,100543.01
2019-02-20T12:26:12.359Z,100544.27
2019-02-20T12:28:41.467Z,100545.73
2019-02-20T12:31:10.506Z,100542.52
2019-02-20T12:33:39.560Z,100541.96
2019-02-20T12:36:08.621Z,100551.72
2019-02-20T12:38:37.741Z,100546.91
2019-02-20T12:41:06.781Z,100546.41
2019-02-20T12:43:35.871Z,100540.19
2019-02-20T12:46:04.927Z,100549.40
2019-02-20T12:48:34.041Z,100535.47
2019-02-20T12:51:03.083Z,100534.12
2019-02-20T12:53:32.163Z,100531.80
2019-02-20T12:56:09.654Z,100550.42
2019-02-20T12:58:32.097Z,100548.50
2019-02-20T13:01:01.193Z,100549.80
2019-02-20T13:03:30.307Z,100542.41
2019-02-20T13:05:59.381Z,100539.56
2019-02-20T13:08:28.499Z,100538.30
2019-02-20T13:10:57.571Z,100534.21
2019-02-20T13:13:26.668Z,100543.68
2019-02-20T13:15:55.801Z,100545.56
2019-02-20T13:18:24.885Z,100537.09
2019-02-20T13:20:53.898Z,100538.00
2019-02-20T13:23:23.020Z,100538.72
2019-02-20T13:25:52.053Z,100539.20
2019-02-20T13:28:21.154Z,100532.48
2019-02-20T13:30:50.210Z,100557.75
2019-02-20T13:33:19.258Z,100530.97
2019-02-20T13:35:48.320Z,100535.56
2019-02-20T13:38:17.399Z,100525.69
2019-02-20T13:40:46.632Z,100525.70
2019-02-20T13:43:15.762Z,100536.38
2019-02-20T13:45:45.098Z,100526.11
2019-02-20T13:48:14.403Z,100524.53
2019-02-20T13:50:43.540Z,100517.56
2019-02-20T13:53:14.172Z,100533.00
2019-02-20T13:55:43.444Z,100523.23
2019-02-20T13:58:12.541Z,100528.52
2019-02-20T14:00:41.614Z,100528.55
2019-02-20T14:03:10.685Z,100517.11
2019-02-20T14:05:39.876Z,100520.12
2019-02-20T14:08:09.072Z,100523.62
2019-02-20T14:10:38.169Z,100523.95
2019-02-20T14:13:07.258Z,100541.03
2019-02-20T14:15:36.316Z,100530.15
2019-02-20T14:18:05.558Z,100530.12
2019-02-20T14:20:34.690Z,100519.89
2019-02-20T14:23:03.738Z,100526.28
2019-02-20T14:25:32.899Z,100526.48
2019-02-20T14:28:01.995Z,100546.81
2019-02-20T14:30:31.073Z,100520.69
2019-02-20T14:33:00.732Z,100538.20
2019-02-20T14:35:29.769Z,100524.05
2019-02-20T14:37:58.823Z,100527.06
2019-02-20T14:40:27.940Z,100517.76
2019-02-20T14:42:57.037Z,100524.69
2019-02-20T14:45:26.120Z,100516.67
2019-02-20T14:47:55.236Z,100518.84
2019-02-20T14:50:24.311Z,100519.63
2019-02-20T14:52:53.408Z,100514.05
2019-02-20T14:55:22.524Z,100518.90
2019-02-20T14:57:51.588Z,100513.01
2019-02-20T15:00:20.718Z,100522.12
2019-02-20T15:02:49.763Z,100527.47
2019-02-20T15:05:19.153Z,100525.33
2019-02-20T15:07:48.267Z,100531.53
2019-02-20T15:10:20.163Z,100526.03
2019-02-20T15:12:49.256Z,100522.67
2019-02-20T15:15:19.184Z,100526.30
2019-02-20T15:17:48.489Z,100526.41
2019-02-20T15:20:18.432Z,100523.36
2019-02-20T15:22:47.597Z,100528.28
2019-02-20T15:25:16.753Z,100528.03
2019-02-20T15:27:45.826Z,100529.20
2019-02-20T15:30:14.958Z,100533.19
2019-02-20T15:32:44.033Z,100553.58
2019-02-20T15:35:13.591Z,100530.23
2019-02-20T15:37:42.742Z,100540.41
2019-02-20T15:40:11.953Z,100540.89
2019-02-20T15:42:41.152Z,100549.74
2019-02-20T15:45:10.282Z,100551.13
2019-02-20T15:47:40.484Z,100553.88
2019-02-20T15:50:11.628Z,100549.30
2019-02-20T15:52:40.818Z,100547.23
2019-02-20T15:55:11.417Z,100546.53
2019-02-20T15:57:41.363Z,100549.20
2019-02-20T16:00:16.041Z,100550.72
2019-02-20T16:02:45.405Z,100553.47
2019-02-20T16:05:15.001Z,100548.31
2019-02-20T16:07:44.157Z,100565.11
2019-02-20T16:10:13.400Z,100551.16
2019-02-20T16:12:43.202Z,100546.87
2019-02-20T16:15:14.696Z,100547.42
2019-02-20T16:17:44.878Z,100552.34
2019-02-20T16:20:14.524Z,100552.47
2019-02-20T16:22:43.827Z,100548.59
2019-02-20T16:25:13.748Z,100550.80
2019-02-20T16:27:47.167Z,100547.78
2019-02-20T16:30:13.921Z,100550.42
2019-02-20T16:32:43.062Z,100550.97
2019-02-20T16:35:12.616Z,100560.73
2019-02-20T16:37:42.027Z,100551.60
2019-02-20T16:40:12.453Z,100552.56
2019-02-20T16:42:41.536Z,100551.31
2019-02-20T16:45:19.418Z,100555.79
2019-02-20T16:47:48.689Z,100556.74
2019-02-20T16:50:17.872Z,100553.36
2019-02-20T16:52:47.586Z,100437.03
2019-02-20T16:55:19.335Z,100567.16
2019-02-20T16:57:56.360Z,100569.41
2019-02-20T17:00:19.834Z,100575.18
2019-02-20T17:02:49.036Z,100573.91
2019-02-20T17:05:18.336Z,100572.59
2019-02-20T17:07:47.619Z,100577.01
2019-02-20T17:10:16.737Z,100576.62
2019-02-20T17:12:45.860Z,100580.57
2019-02-20T17:15:15.255Z,100586.30
2019-02-20T17:17:44.309Z,100605.59
2019-02-20T17:20:13.781Z,100588.05
2019-02-20T17:22:43.001Z,100595.05
2019-02-20T17:25:12.167Z,100592.00
2019-02-20T17:27:41.337Z,100595.94
2019-02-20T17:30:11.668Z,100598.11
2019-02-20T17:32:40.836Z,100594.66
2019-02-20T17:35:10.879Z,100594.70
2019-02-20T17:37:39.962Z,100598.22
2019-02-20T17:40:09.038Z,100600.89
2019-02-20T17:42:38.073Z,100604.45
2019-02-20T17:45:08.534Z,100607.97
2019-02-20T17:47:37.620Z,100605.36
2019-02-20T17:50:12.918Z,100439.03
2019-02-20T17:52:42.027Z,100611.55
2019-02-20T17:55:11.214Z,100612.92
2019-02-20T17:57:40.302Z,100621.27
2019-02-20T18:00:11.311Z,100625.27
2019-02-20T18:02:40.585Z,100624.41
2019-02-20T18:05:09.827Z,100624.45
2019-02-20T18:07:48.332Z,100629.27
2019-02-20T18:10:10.479Z,100629.30
2019-02-20T18:12:39.815Z,100629.32
2019-02-20T18:15:09.337Z,100632.39
2019-02-20T18:17:38.648Z,100606.22
2019-02-20T18:20:08.159Z,100630.27
2019-02-20T18:22:37.382Z,100626.33
2019-02-20T18:25:06.608Z,100628.52
2019-02-20T18:27:35.986Z,100631.18
2019-02-20T18:30:05.389Z,100632.91
2019-02-20T18:32:34.713Z,100638.65
2019-02-20T18:35:04.055Z,100631.64
2019-02-20T18:37:33.183Z,100639.05
2019-02-20T18:40:02.537Z,100639.50
2019-02-20T18:42:31.732Z,100489.19
2019-02-20T18:45:00.934Z,100642.59
2019-02-20T18:47:30.230Z,100636.01
2019-02-20T18:49:59.361Z,100639.97
2019-02-20T18:52:28.529Z,100646.53
2019-02-20T18:55:05.509Z,100643.92
2019-02-20T18:57:28.976Z,100643.50
2019-02-20T18:59:58.279Z,100646.13
2019-02-20T19:02:27.381Z,100649.18
2019-02-20T19:04:56.734Z,100643.50
2019-02-20T19:07:26.170Z,100646.59
2019-02-20T19:09:55.513Z,100647.03
2019-02-20T19:12:41.986Z,100649.66
2019-02-20T19:15:42.671Z,100648.33
2019-02-20T19:19:02.594Z,100653.58
2019-02-20T19:22:17.480Z,100657.10
2019-02-20T19:25:22.553Z,100654.00
2019-02-20T19:28:12.380Z,100657.94
2019-02-20T19:31:40.931Z,100650.95
2019-02-20T19:34:26.312Z,100654.43
2019-02-20T19:37:37.954Z,100650.50
2019-02-20T19:40:40.726Z,100653.99
2019-02-20T19:43:34.005Z,100643.95
2019-02-20T19:46:36.422Z,100647.45
2019-02-20T19:49:33.758Z,100651.36
2019-02-20T19:52:47.453Z,100656.62
2019-02-20T19:55:55.099Z,100662.72
2019-02-20T19:59:17.425Z,100663.13
2019-02-20T20:02:28.526Z,100662.27
2019-02-20T20:05:37.454Z,100657.84
2019-02-20T20:09:05.575Z,100660.02
2019-02-20T20:12:28.131Z,100663.08
2019-02-20T20:15:38.484Z,100657.38
2019-02-20T20:18:45.887Z,100657.78
2019-02-20T20:21:51.861Z,100662.10
2019-02-20T20:24:45.004Z,100655.55
2019-02-20T20:27:51.738Z,100658.17
2019-02-20T20:31:01.682Z,100656.41
2019-02-20T20:34:18.512Z,100654.22
2019-02-20T20:37:05.997Z,100651.13
2019-02-20T20:40:18.160Z,100652.84
2019-02-20T20:43:28.429Z,100649.77
2019-02-20T20:46:44.692Z,100647.97
2019-02-20T20:50:09.015Z,100651.47
2019-02-20T20:53:03.057Z,100654.52
2019-02-20T20:56:07.693Z,100654.42
2019-02-20T20:59:17.798Z,100662.29
2019-02-20T21:02:14.365Z,100664.05
2019-02-20T21:05:19.368Z,100668.88
2019-02-20T21:08:33.221Z,100668.00
2019-02-20T21:12:04.687Z,100669.74
2019-02-20T21:15:05.246Z,100672.80
2019-02-20T21:18:12.257Z,100667.56
2019-02-20T21:21:19.550Z,100673.68
2019-02-20T21:24:25.546Z,100673.28
2019-02-20T21:27:39.891Z,100673.70
2019-02-20T21:30:42.926Z,100680.27
2019-02-20T21:33:42.366Z,100678.52
2019-02-20T21:37:03.561Z,100674.57
2019-02-20T21:39:51.461Z,100683.71
2019-02-20T21:42:45.652Z,100678.90
2019-02-20T21:45:48.767Z,100678.86
2019-02-20T21:49:07.843Z,100684.53
2019-02-20T21:52:31.721Z,100691.53
2019-02-20T21:55:48.114Z,100698.06
2019-02-20T21:58:33.733Z,100703.28
2019-02-20T22:01:43.969Z,100711.08
2019-02-20T22:04:52.968Z,100712.39
2019-02-20T22:08:02.762Z,100711.09
2019-02-20T22:11:03.473Z,100710.62
2019-02-20T22:14:12.127Z,100710.16
2019-02-20T22:17:40.625Z,100713.22
2019-02-20T22:20:47.322Z,100707.95
2019-02-20T22:23:52.384Z,100713.13
2019-02-20T22:26:46.889Z,100716.18
2019-02-20T22:29:49.742Z,100710.92
2019-02-20T22:33:00.551Z,100701.76
2019-02-20T22:36:12.758Z,100707.44
2019-02-20T22:38:53.536Z,100710.86
2019-02-20T22:41:38.047Z,100711.72
2019-02-20T22:44:38.842Z,100710.41
2019-02-20T22:47:37.949Z,100710.00
2019-02-20T22:50:38.843Z,100708.63
2019-02-20T22:53:37.480Z,100712.13
2019-02-20T22:56:39.132Z,100710.78
2019-02-20T22:59:43.863Z,100719.52
2019-02-20T23:03:01.123Z,100716.48
2019-02-20T23:06:07.490Z,100726.05
2019-02-20T23:09:20.358Z,100732.18
2019-02-20T23:12:14.077Z,100725.62
2019-02-20T23:14:54.728Z,100729.09
2019-02-20T23:17:23.895Z,100731.27
2019-02-20T23:19:53.487Z,100736.06
2019-02-20T23:22:22.628Z,100736.48
2019-02-20T23:24:51.852Z,100730.35
2019-02-20T23:27:21.001Z,100731.66
2019-02-20T23:29:50.256Z,100728.19
2019-02-20T23:32:19.343Z,100164.58
2019-02-20T23:34:48.543Z,100741.24
2019-02-20T23:37:17.810Z,100734.26
2019-02-20T23:39:47.039Z,100738.63
2019-02-20T23:42:16.232Z,100723.64
2019-02-20T23:44:45.381Z,100740.77
2019-02-20T23:47:14.716Z,100733.81
2019-02-20T23:49:43.800Z,100737.77
2019-02-20T23:52:12.924Z,100737.33
2019-02-20T23:54:42.024Z,100741.66
2019-02-20T23:57:11.138Z,100741.64
2019-02-20T23:59:40.218Z,100743.39
